Lancaster, SC

6:35 PM EST on January 25, 2015 (GMT -0500)
City of Lancaster | Change Station
CLOSE
Current Station
Personal Weather Station
Location: Lancaster, SC
Elevation: 479 ft
Nearby Weather Stations

Elev 479 ft 34.73 °N, 80.77 °W | Updated 1 second ago

Clear
Clear
52.0 °F
Feels Like 52.0 °F
N
2.0
Wind Variable Wind from SE
Gusts 6.0 mph

Today
High -- | Low -- °F
--% Chance of Precip.
Yesterday
High -- | Low -- °F
Precip. -- in
7:26 AM 5:45 PM
Waxing Crescent, 37% visible
Pressure 29.84 in
Visibility 10.0 miles
Clouds Clear
Dew Point 37 °F
Humidity 56%
Rainfall 0.00 in
Snow Depth Not available.
UV 0 out of 12
Pollen 1.10 out of 12
Air Quality Not available.
Flu Activity Not available.
METAR KEQY 252253Z AUTO 20004KT 10SM CLR 11/M01 A2978 RMK AO2 SLP103 T01111011

More Conditions Fewer Conditions

Pressure 29.84 in
Visibility 10.0 miles
Clouds Clear
Dew Point 37 °F
Humidity 56%
Rainfall 0.00 in
Snow Depth Not available.
UV 0 out of 12
Pollen 1.10 out of 12
Air Quality Not available.
Flu Activity Not available.
METAR KEQY 252253Z AUTO 20004KT 10SM CLR 11/M01 A2978 RMK AO2 SLP103 T01111011

More Conditions Fewer Conditions

10-Day Weather Forecast

Almanac

Astronomy

Jan. 25, 2015 Rise Set
Actual Time
Civil Twilight
Nautical Twilight
Astronomical Twilight
Moon
Length of Visible Light
Length of Day
Tomorrow will be .
, % of the Moon is Illuminated

Today's Extremes

State Highs State Lows

Community

WunderPhotos

Upload Photos

1,790,090 photos uploaded!

WunderBlogs® & News

Nearby

Air Quality

  Air Quality AQ Index Pollutant
Not available.

Snow Depth

Station Depth Elevation

Earthquake Activity

City Distance Mag. Time & Date
Minimum magnitude displayed is 2.5.

Coastal Water Temperatures

Place Temperature

Nearby Weather Stations